Time;durP1;ratioP1;P1;durP2;ratioP2;P2;SDS_P1;SDS_P2;PMS_P1;PMS_P2;Temp;Humidity;BMP_temperature;BMP_pressure;BME280_temperature;BME280_humidity;BME280_pressure;Samples;Min_cycle;Max_cycle;Signal;HPM_P1;HPM_P2
2023/09/10 00:01:53;;;;;;;0.00;0.00;;;;;;;18.16;96.83;100600.25;5053330;28;20190;-78
2023/09/10 00:04:18;;;;;;;0.00;0.00;;;;;;;17.97;97.21;100594.66;5053268;28;20210;-78
2023/09/10 00:06:44;;;;;;;3.60;1.03;;;;;;;18.02;97.65;100605.44;5051809;28;20203;-77
2023/09/10 00:09:09;;;;;;;0.00;0.00;;;;;;;17.92;97.85;100597.66;5052522;28;20253;-77
2023/09/10 00:11:34;;;;;;;0.10;0.10;;;;;;;17.95;97.94;100603.31;5051517;28;20274;-77
2023/09/10 00:14:00;;;;;;;0.30;0.30;;;;;;;17.78;98.02;100592.56;5051812;28;20179;-77
2023/09/10 00:16:25;;;;;;;0.40;0.30;;;;;;;17.79;98.78;100599.69;5052683;28;20743;-77
2023/09/10 00:18:50;;;;;;;0.00;0.00;;;;;;;17.81;99.35;100600.19;5052727;28;20179;-77
2023/09/10 00:21:15;;;;;;;0.00;0.00;;;;;;;17.88;99.99;100605.06;5052807;28;20183;-77
2023/09/10 00:23:41;;;;;;;0.00;0.00;;;;;;;17.95;100.00;100605.25;5051590;28;20670;-77
2023/09/10 00:26:06;;;;;;;0.00;0.00;;;;;;;18.01;100.00;100606.59;5052594;28;20289;-78
2023/09/10 00:28:31;;;;;;;0.00;0.00;;;;;;;18.10;100.00;100608.00;5052997;28;20183;-77
2023/09/10 00:30:57;;;;;;;0.00;0.00;;;;;;;18.14;100.00;100613.63;5053275;28;20263;-77
2023/09/10 00:33:22;;;;;;;0.00;0.00;;;;;;;18.16;100.00;100605.78;5052701;28;20197;-78
2023/09/10 00:35:49;;;;;;;0.50;0.47;;;;;;;18.22;100.00;100600.75;5051510;28;20727;-77
2023/09/10 00:38:14;;;;;;;0.07;0.07;;;;;;;18.16;99.16;100594.72;5052280;28;20179;-78
2023/09/10 00:40:39;;;;;;;0.00;0.00;;;;;;;18.06;98.13;100593.28;5052443;28;20183;-77
2023/09/10 00:43:05;;;;;;;0.23;0.23;;;;;;;18.02;97.69;100597.13;5050443;28;20262;-78
2023/09/10 00:45:30;;;;;;;0.20;0.20;;;;;;;17.92;97.71;100597.66;5052845;28;20284;-77
2023/09/10 00:47:56;;;;;;;0.00;0.00;;;;;;;17.92;97.69;100592.13;5053186;28;20203;-77
2023/09/10 00:50:22;;;;;;;0.20;0.20;;;;;;;17.78;98.25;100596.13;5052221;28;20269;-77
2023/09/10 00:52:52;;;;;;;0.47;0.47;;;;;;;17.68;99.08;100599.44;5053024;28;20321;-77
2023/09/10 00:55:19;;;;;;;0.00;0.00;;;;;;;17.64;99.49;100609.56;5052167;28;20293;-77
2023/09/10 00:57:44;;;;;;;0.00;0.00;;;;;;;17.56;100.00;100607.78;5051124;28;20265;-77
2023/09/10 01:00:12;;;;;;;0.00;0.00;;;;;;;17.47;100.00;100616.22;5050588;28;20657;-77
2023/09/10 01:02:38;;;;;;;0.00;0.00;;;;;;;17.54;100.00;100624.72;5052071;28;20225;-78
2023/09/10 01:05:04;;;;;;;0.00;0.00;;;;;;;17.59;100.00;100626.41;5050459;28;20290;-77
2023/09/10 01:07:30;;;;;;;0.00;0.00;;;;;;;17.69;100.00;100631.47;5052259;28;20287;-77
2023/09/10 01:09:55;;;;;;;0.00;0.00;;;;;;;17.77;100.00;100633.22;5050890;28;20183;-77
2023/09/10 01:12:40;;;;;;;0.00;0.00;;;;;;;17.77;100.00;100641.53;5052859;28;20219;-77
2023/09/10 01:15:10;;;;;;;0.50;0.50;;;;;;;17.71;100.00;100628.34;5050988;28;20199;-77
2023/09/10 01:17:48;;;;;;;0.00;0.00;;;;;;;17.55;100.00;100620.78;5052368;28;20590;-77
2023/09/10 01:20:42;;;;;;;3.00;1.20;;;;;;;17.52;99.63;100623.47;5051526;28;20179;-78
2023/09/10 01:23:15;;;;;;;2.73;2.53;;;;;;;17.33;99.33;100617.78;5050294;28;20205;-77
2023/09/10 01:25:41;;;;;;;1.70;1.60;;;;;;;17.16;99.79;100616.16;5051219;28;20289;-77
2023/09/10 01:28:06;;;;;;;1.07;1.07;;;;;;;16.95;100.00;100611.63;5051576;28;20259;-78
2023/09/10 01:30:32;;;;;;;1.17;1.10;;;;;;;16.92;100.00;100619.78;5034176;28;20176;-77
2023/09/10 01:33:08;;;;;;;2.10;2.00;;;;;;;16.89;100.00;100635.09;5038857;28;20215;-77
2023/09/10 01:35:42;;;;;;;3.80;2.97;;;;;;;17.00;100.00;100638.19;5030852;28;20684;-77
2023/09/10 01:38:07;;;;;;;1.97;1.87;;;;;;;17.07;100.00;100634.81;5047648;28;20668;-77
2023/09/10 01:40:36;;;;;;;0.00;0.00;;;;;;;17.31;100.00;100645.78;5042903;28;20171;-77
2023/09/10 01:43:05;;;;;;;0.80;0.80;;;;;;;17.38;100.00;100639.66;5049014;28;20653;-78
2023/09/10 01:45:33;;;;;;;0.00;0.00;;;;;;;17.44;100.00;100635.47;5051870;28;20734;-78
2023/09/10 01:48:00;;;;;;;0.00;0.00;;;;;;;17.58;100.00;100637.81;5050965;28;20214;-79
2023/09/10 01:50:26;;;;;;;0.00;0.00;;;;;;;17.65;100.00;100644.34;5045890;28;20181;-78
2023/09/10 01:52:51;;;;;;;0.03;0.03;;;;;;;17.69;100.00;100634.22;5050697;28;20183;-77
2023/09/10 01:55:17;;;;;;;0.03;0.03;;;;;;;17.56;100.00;100635.41;5051329;28;20739;-77
2023/09/10 01:57:42;;;;;;;0.20;0.20;;;;;;;17.55;100.00;100628.28;5051528;28;20183;-77
2023/09/10 02:00:09;;;;;;;0.00;0.00;;;;;;;17.72;100.00;100632.69;5050536;28;20225;-77
2023/09/10 02:02:34;;;;;;;0.00;0.00;;;;;;;17.58;99.49;100616.50;5050184;28;20183;-77
2023/09/10 02:04:59;;;;;;;1.70;1.70;;;;;;;17.72;99.07;100638.22;5052021;28;20685;-77
2023/09/10 02:07:24;;;;;;;0.00;0.00;;;;;;;17.66;98.66;100629.38;5047394;28;20488;-77
2023/09/10 02:09:50;;;;;;;0.00;0.00;;;;;;;17.71;98.26;100637.44;5044444;28;20225;-79
2023/09/10 02:12:15;;;;;;;0.00;0.00;;;;;;;17.67;97.85;100622.69;5051345;28;20254;-77
2023/09/10 02:14:42;;;;;;;0.00;0.00;;;;;;;17.72;97.84;100629.94;5051055;28;20686;-77
2023/09/10 02:17:08;;;;;;;0.67;0.67;;;;;;;17.77;97.87;100632.44;5051345;28;20221;-79
2023/09/10 02:19:33;;;;;;;0.00;0.00;;;;;;;17.79;97.55;100643.94;5054095;28;20183;-79
2023/09/10 02:21:58;;;;;;;0.00;0.00;;;;;;;17.76;97.26;100631.63;5053882;28;20330;-79
2023/09/10 02:24:24;;;;;;;0.10;0.10;;;;;;;17.67;97.27;100632.94;5053972;28;20601;-78
2023/09/10 02:26:49;;;;;;;0.00;0.00;;;;;;;17.69;97.26;100630.66;5055301;28;20230;-79
2023/09/10 02:29:14;;;;;;;0.00;0.00;;;;;;;17.66;97.28;100637.66;5057250;28;20175;-78
2023/09/10 02:31:39;;;;;;;0.00;0.00;;;;;;;17.61;97.49;100646.19;5057954;28;20207;-79
2023/09/10 02:34:05;;;;;;;0.00;0.00;;;;;;;17.67;97.75;100644.00;5055128;28;20186;-79
2023/09/10 02:36:30;;;;;;;0.07;0.07;;;;;;;17.66;97.55;100645.97;5057593;28;20274;-79
2023/09/10 02:38:55;;;;;;;0.00;0.00;;;;;;;17.66;98.00;100657.00;5057305;28;20213;-79
2023/09/10 02:41:21;;;;;;;0.63;0.63;;;;;;;17.62;98.04;100658.03;5055209;28;20183;-78
2023/09/10 02:43:46;;;;;;;2.23;1.20;;;;;;;17.70;98.44;100659.88;5056323;28;20590;-78
2023/09/10 02:46:12;;;;;;;0.10;0.10;;;;;;;17.68;98.38;100668.53;5054477;28;20622;-79
2023/09/10 02:48:37;;;;;;;0.00;0.00;;;;;;;17.73;97.60;100664.69;5054821;28;20179;-79
2023/09/10 02:51:02;;;;;;;0.83;0.83;;;;;;;17.76;97.09;100664.00;5053325;28;20244;-79
2023/09/10 02:53:27;;;;;;;0.00;0.00;;;;;;;17.70;96.29;100668.97;5048335;28;20266;-79
2023/09/10 02:56:02;;;;;;;0.00;0.00;;;;;;;17.76;96.24;100670.31;5051901;28;20202;-78
2023/09/10 02:58:29;;;;;;;0.00;0.00;;;;;;;17.70;95.85;100660.69;5040466;28;20189;-79
2023/09/10 03:00:54;;;;;;;0.00;0.00;;;;;;;17.68;95.06;100664.94;5055848;28;20187;-79
2023/09/10 03:03:19;;;;;;;0.00;0.00;;;;;;;17.61;94.84;100653.69;5055638;28;20205;-78
2023/09/10 03:05:46;;;;;;;1.67;1.57;;;;;;;17.40;94.82;100642.88;5055142;28;20773;-78
2023/09/10 03:08:11;;;;;;;0.00;0.00;;;;;;;17.24;94.85;100642.81;5049573;28;20597;-78
2023/09/10 03:10:36;;;;;;;0.00;0.00;;;;;;;17.32;95.87;100660.38;5055886;28;20179;-78
2023/09/10 03:13:02;;;;;;;0.00;0.00;;;;;;;17.34;96.61;100658.06;5056429;28;20190;-79
2023/09/10 03:15:27;;;;;;;0.00;0.00;;;;;;;17.43;97.03;100670.56;5054426;28;20202;-78
2023/09/10 03:17:53;;;;;;;1.70;0.53;;;;;;;17.19;97.12;100660.41;5055954;28;20254;-77
2023/09/10 03:20:18;;;;;;;0.00;0.00;;;;;;;17.24;97.58;100670.44;5053386;28;20195;-77
2023/09/10 03:22:43;;;;;;;0.27;0.27;;;;;;;17.07;98.11;100657.72;5053532;28;20186;-77
2023/09/10 03:25:09;;;;;;;0.60;0.60;;;;;;;16.84;98.90;100662.16;5050794;28;20215;-77
2023/09/10 03:27:34;;;;;;;0.50;0.50;;;;;;;16.89;99.85;100670.16;5054433;28;20210;-77
2023/09/10 03:30:00;;;;;;;0.00;0.00;;;;;;;16.83;99.97;100672.38;5054117;28;20175;-77
2023/09/10 03:32:25;;;;;;;0.30;0.30;;;;;;;16.89;100.00;100683.97;5052673;28;20202;-77
2023/09/10 03:34:51;;;;;;;0.10;0.10;;;;;;;16.94;100.00;100681.00;5054633;28;20193;-78
2023/09/10 03:37:16;;;;;;;0.60;0.60;;;;;;;16.78;100.00;100669.88;5053931;28;20739;-77
2023/09/10 03:39:41;;;;;;;0.43;0.43;;;;;;;16.74;100.00;100671.69;5054315;28;20190;-77
2023/09/10 03:42:08;;;;;;;0.00;0.00;;;;;;;16.79;100.00;100682.50;5053636;28;20637;-77
2023/09/10 03:44:33;;;;;;;0.47;0.47;;;;;;;16.66;100.00;100680.88;5054755;28;20217;-78
2023/09/10 03:46:59;;;;;;;0.10;0.10;;;;;;;16.54;100.00;100673.41;5052119;28;20214;-77
2023/09/10 03:49:25;;;;;;;0.00;0.00;;;;;;;16.50;100.00;100678.03;5053532;28;20175;-77
2023/09/10 03:51:51;;;;;;;0.93;0.93;;;;;;;16.65;100.00;100687.56;5054471;28;20179;-77
2023/09/10 03:54:17;;;;;;;2.17;1.43;;;;;;;16.54;100.00;100670.66;5053003;28;20206;-77
2023/09/10 03:56:43;;;;;;;0.93;0.93;;;;;;;16.40;100.00;100664.69;5051881;28;20685;-77
2023/09/10 03:59:09;;;;;;;0.00;0.00;;;;;;;16.50;100.00;100680.78;5053678;28;20186;-77
2023/09/10 04:01:35;;;;;;;0.00;0.00;;;;;;;16.60;100.00;100693.28;5052937;28;20668;-78
2023/09/10 04:04:01;;;;;;;0.53;0.53;;;;;;;16.69;100.00;100687.69;5052327;28;20195;-77
2023/09/10 04:06:26;;;;;;;1.37;1.30;;;;;;;16.59;100.00;100675.94;5053723;28;20723;-77
2023/09/10 04:08:51;;;;;;;1.03;0.93;;;;;;;16.59;100.00;100666.84;5051588;28;20195;-77
2023/09/10 04:11:17;;;;;;;0.30;0.30;;;;;;;16.60;100.00;100679.50;5053315;28;20183;-78
2023/09/10 04:13:42;;;;;;;0.37;0.37;;;;;;;16.66;100.00;100681.69;5053454;28;20262;-77
2023/09/10 04:16:07;;;;;;;1.27;1.27;;;;;;;16.68;100.00;100681.38;5054250;28;20199;-77
2023/09/10 04:18:34;;;;;;;6.60;1.07;;;;;;;16.75;100.00;100678.00;5053595;28;20214;-78
2023/09/10 04:21:03;;;;;;;0.00;0.00;;;;;;;16.73;100.00;100681.13;5054003;28;20175;-77
2023/09/10 04:23:28;;;;;;;0.83;0.83;;;;;;;16.42;100.00;100680.88;5051994;28;20187;-77
2023/09/10 04:25:54;;;;;;;0.00;0.00;;;;;;;16.32;100.00;100693.97;5053638;28;20226;-77
2023/09/10 04:28:19;;;;;;;0.00;0.00;;;;;;;16.57;100.00;100696.75;5052448;28;20677;-78
2023/09/10 04:30:44;;;;;;;0.00;0.00;;;;;;;16.64;100.00;100697.78;5051442;28;20193;-77
2023/09/10 04:33:11;;;;;;;0.23;0.23;;;;;;;16.73;100.00;100696.88;5054044;28;20262;-77
2023/09/10 04:35:37;;;;;;;0.00;0.00;;;;;;;16.72;100.00;100698.84;5052448;28;20576;-77
2023/09/10 04:38:02;;;;;;;0.00;0.00;;;;;;;16.51;100.00;100698.13;5054792;28;20187;-79
2023/09/10 04:40:27;;;;;;;0.00;0.00;;;;;;;16.68;100.00;100708.97;5054871;28;20237;-79
2023/09/10 04:42:53;;;;;;;1.20;1.20;;;;;;;16.83;100.00;100707.44;5052887;28;20183;-79
2023/09/10 04:45:18;;;;;;;0.40;0.40;;;;;;;16.76;100.00;100702.50;5054212;28;20653;-78
2023/09/10 04:47:43;;;;;;;0.00;0.00;;;;;;;16.86;100.00;100698.47;5051646;28;20217;-79
2023/09/10 04:50:09;;;;;;;0.00;0.00;;;;;;;16.74;100.00;100701.25;5054126;28;20187;-78
2023/09/10 04:52:34;;;;;;;0.00;0.00;;;;;;;16.59;100.00;100691.69;5052517;28;20190;-78
2023/09/10 04:54:59;;;;;;;0.10;0.10;;;;;;;16.62;100.00;100690.97;5054318;28;20290;-78
2023/09/10 04:57:26;;;;;;;0.00;0.00;;;;;;;16.57;100.00;100703.06;5051132;28;20175;-78
2023/09/10 04:59:51;;;;;;;0.20;0.20;;;;;;;16.56;100.00;100714.44;5053982;28;20718;-79
2023/09/10 05:02:17;;;;;;;0.63;0.53;;;;;;;16.46;100.00;100709.38;5051994;28;20175;-79
2023/09/10 05:04:42;;;;;;;0.70;0.70;;;;;;;16.50;100.00;100724.13;5053893;28;20213;-78
2023/09/10 05:07:08;;;;;;;0.00;0.00;;;;;;;16.46;100.00;100723.97;5052461;28;20700;-78
2023/09/10 05:09:33;;;;;;;0.00;0.00;;;;;;;16.53;100.00;100738.00;5052663;28;20183;-79
2023/09/10 05:11:59;;;;;;;0.00;0.00;;;;;;;16.47;100.00;100728.34;5052198;28;20254;-78
2023/09/10 05:14:25;;;;;;;0.23;0.23;;;;;;;16.54;100.00;100727.78;5054589;28;20660;-79
2023/09/10 05:16:51;;;;;;;0.00;0.00;;;;;;;16.53;100.00;100737.22;5047590;28;20208;-78
2023/09/10 05:19:16;;;;;;;0.20;0.20;;;;;;;16.66;100.00;100742.38;5029284;28;20685;-78
2023/09/10 05:21:42;;;;;;;0.00;0.00;;;;;;;16.72;100.00;100754.03;5036136;28;20184;-78
2023/09/10 05:24:07;;;;;;;0.00;0.00;;;;;;;16.80;100.00;100753.09;5043938;28;20553;-78
2023/09/10 05:26:33;;;;;;;0.37;0.37;;;;;;;16.77;100.00;100736.41;5055272;28;20239;-80
2023/09/10 05:28:58;;;;;;;1.90;1.90;;;;;;;16.58;100.00;100731.44;5040784;28;20183;-78
2023/09/10 05:31:24;;;;;;;0.00;0.00;;;;;;;16.43;100.00;100735.69;5035141;28;20189;-78
2023/09/10 05:33:50;;;;;;;0.00;0.00;;;;;;;16.53;100.00;100757.31;5025075;28;20214;-78
2023/09/10 05:36:15;;;;;;;0.17;0.17;;;;;;;16.53;100.00;100754.56;5033748;28;20234;-77
2023/09/10 05:38:40;;;;;;;0.57;0.57;;;;;;;16.44;100.00;100753.84;5031414;28;20302;-78
2023/09/10 05:41:07;;;;;;;0.00;0.00;;;;;;;16.49;100.00;100761.94;5028998;28;20541;-78
2023/09/10 05:43:32;;;;;;;0.00;0.00;;;;;;;16.64;100.00;100777.78;5033242;28;20180;-78
2023/09/10 05:45:58;;;;;;;0.13;0.13;;;;;;;16.84;100.00;100778.84;5030367;28;20616;-78
2023/09/10 05:48:23;;;;;;;0.00;0.00;;;;;;;17.07;100.00;100776.44;5037132;28;20577;-78
2023/09/10 05:50:49;;;;;;;0.30;0.30;;;;;;;17.13;100.00;100769.50;5034373;28;20187;-78
2023/09/10 05:53:14;;;;;;;0.20;0.20;;;;;;;17.18;100.00;100765.69;5039429;28;20547;-78
2023/09/10 05:55:41;;;;;;;0.00;0.00;;;;;;;17.19;100.00;100770.06;5038663;28;20202;-78
2023/09/10 05:58:07;;;;;;;0.00;0.00;;;;;;;17.38;100.00;100775.00;5051883;28;20179;-78
2023/09/10 06:00:33;;;;;;;0.00;0.00;;;;;;;17.25;100.00;100758.44;5049175;28;20688;-78
2023/09/10 06:02:58;;;;;;;0.00;0.00;;;;;;;17.34;100.00;100765.78;5038248;28;20184;-78
2023/09/10 06:05:23;;;;;;;0.00;0.00;;;;;;;17.29;100.00;100777.06;5042476;28;20614;-78
2023/09/10 06:07:49;;;;;;;0.20;0.20;;;;;;;17.31;100.00;100783.06;5031687;28;20242;-78
2023/09/10 06:10:14;;;;;;;0.00;0.00;;;;;;;17.30;100.00;100776.72;5039052;28;20212;-78
2023/09/10 06:12:39;;;;;;;0.00;0.00;;;;;;;17.56;100.00;100792.91;5038856;28;20555;-78
2023/09/10 06:15:07;;;;;;;0.00;0.00;;;;;;;17.57;100.00;100788.97;5038231;28;20602;-78
2023/09/10 06:17:33;;;;;;;0.00;0.00;;;;;;;17.68;100.00;100786.53;5037310;28;20924;-78
2023/09/10 06:19:58;;;;;;;0.00;0.00;;;;;;;17.76;100.00;100783.63;5036148;28;20224;-79
2023/09/10 06:22:23;;;;;;;0.00;0.00;;;;;;;17.90;100.00;100790.72;5041554;28;20740;-79
2023/09/10 06:24:49;;;;;;;0.00;0.00;;;;;;;18.02;100.00;100788.72;5038553;28;20192;-79
2023/09/10 06:27:14;;;;;;;0.20;0.20;;;;;;;18.10;100.00;100798.81;5041731;28;20207;-79
2023/09/10 06:29:39;;;;;;;0.00;0.00;;;;;;;18.20;99.90;100788.38;5038346;28;20179;-79
2023/09/10 06:32:05;;;;;;;0.00;0.00;;;;;;;18.19;99.31;100790.34;5037870;28;20180;-79
2023/09/10 06:34:30;;;;;;;0.00;0.00;;;;;;;18.20;99.33;100788.38;5038038;28;20552;-78
2023/09/10 06:36:56;;;;;;;0.00;0.00;;;;;;;18.43;99.06;100801.28;5040190;28;20249;-79
2023/09/10 06:39:21;;;;;;;0.00;0.00;;;;;;;18.53;97.93;100788.88;5040731;28;20179;-79
2023/09/10 06:41:47;;;;;;;0.00;0.00;;;;;;;18.56;97.28;100787.38;5048756;28;20202;-78
2023/09/10 06:44:12;;;;;;;0.00;0.00;;;;;;;18.65;97.00;100785.22;5054958;28;20284;-79
2023/09/10 06:46:37;;;;;;;0.00;0.00;;;;;;;18.80;96.85;100789.16;5054895;28;20207;-78
2023/09/10 06:49:03;;;;;;;0.00;0.00;;;;;;;19.01;96.62;100798.00;5054355;28;20243;-79
2023/09/10 06:51:28;;;;;;;0.00;0.00;;;;;;;19.14;96.34;100799.47;5053545;28;20321;-80
2023/09/10 06:53:54;;;;;;;1.80;1.07;;;;;;;19.28;95.82;100791.50;5053460;28;20189;-79
2023/09/10 06:56:19;;;;;;;1.77;1.67;;;;;;;19.45;95.04;100798.59;5054384;28;20285;-79
2023/09/10 06:58:44;;;;;;;2.80;2.60;;;;;;;19.70;93.77;100803.91;5054381;28;20250;-80
2023/09/10 07:01:10;;;;;;;1.73;1.63;;;;;;;19.77;92.66;100790.19;5054671;28;20187;-79
2023/09/10 07:03:36;;;;;;;0.00;0.00;;;;;;;19.85;92.05;100787.19;5054647;28;20262;-80
2023/09/10 07:06:03;;;;;;;0.60;0.60;;;;;;;20.00;91.81;100796.59;5054215;28;20211;-79
2023/09/10 07:08:29;;;;;;;2.37;2.27;;;;;;;20.08;91.47;100792.78;5054928;28;20209;-80
2023/09/10 07:10:54;;;;;;;0.60;0.60;;;;;;;20.18;90.60;100789.41;5057217;28;20215;-81
2023/09/10 07:13:20;;;;;;;0.00;0.00;;;;;;;20.26;90.48;100790.34;5057493;28;20182;-85
2023/09/10 07:15:45;;;;;;;0.00;0.00;;;;;;;20.40;89.76;100789.81;5057384;28;20219;-86
2023/09/10 07:18:10;;;;;;;1.90;1.80;;;;;;;20.45;90.31;100793.09;5057955;28;20179;-81
2023/09/10 07:20:35;;;;;;;0.97;0.97;;;;;;;20.43;88.97;100778.78;5058174;28;20201;-83
2023/09/10 07:23:01;;;;;;;0.97;0.97;;;;;;;20.59;89.24;100792.53;5056619;28;20197;-81
2023/09/10 07:25:26;;;;;;;2.97;2.77;;;;;;;20.59;88.36;100783.41;5056259;28;20576;-83
2023/09/10 07:27:51;;;;;;;1.57;1.47;;;;;;;20.62;87.74;100786.25;5059695;28;20740;-84
2023/09/10 07:30:17;;;;;;;2.73;1.30;;;;;;;20.64;87.97;100780.31;5055982;28;20192;-80
2023/09/10 07:32:42;;;;;;;2.00;1.90;;;;;;;20.65;87.97;100785.50;5056305;28;20650;-80
2023/09/10 07:35:08;;;;;;;0.00;0.00;;;;;;;20.80;87.80;100783.75;5058241;28;20256;-82
2023/09/10 07:37:33;;;;;;;2.17;2.07;;;;;;;20.87;87.91;100789.44;5056497;28;20179;-80
2023/09/10 07:39:59;;;;;;;3.27;3.07;;;;;;;20.91;87.83;100786.72;5055149;28;20189;-79
2023/09/10 07:42:24;;;;;;;2.57;2.37;;;;;;;20.92;88.23;100791.88;5056491;28;20194;-81
2023/09/10 07:44:49;;;;;;;2.77;2.37;;;;;;;20.96;88.13;100794.72;5044380;28;20224;-80
2023/09/10 07:47:15;;;;;;;0.73;0.73;;;;;;;21.01;87.52;100786.88;5049114;28;20205;-80
2023/09/10 07:49:40;;;;;;;0.40;0.40;;;;;;;21.13;87.66;100787.84;5044306;28;20188;-80
2023/09/10 07:52:06;;;;;;;1.63;1.53;;;;;;;21.20;87.48;100787.94;5037618;28;20188;-80
2023/09/10 07:54:31;;;;;;;3.03;2.83;;;;;;;21.29;87.48;100796.84;5046855;28;20249;-80
2023/09/10 07:56:57;;;;;;;4.90;4.50;;;;;;;21.36;87.13;100794.16;5052449;28;20657;-80
2023/09/10 07:59:22;;;;;;;1.40;1.37;;;;;;;21.46;87.36;100795.50;5055670;28;20184;-80
2023/09/10 08:01:47;;;;;;;3.07;2.87;;;;;;;21.51;87.95;100797.94;5055259;28;20253;-80
2023/09/10 08:04:13;;;;;;;5.67;5.20;;;;;;;21.56;87.65;100792.84;5055272;28;20667;-80
2023/09/10 08:06:38;;;;;;;7.10;6.50;;;;;;;21.64;86.75;100785.38;5060454;28;20574;-80
2023/09/10 08:09:05;;;;;;;9.47;5.57;;;;;;;21.72;86.93;100786.28;5053617;28;20184;-80
2023/09/10 08:11:30;;;;;;;7.60;6.00;;;;;;;21.80;86.73;100793.53;5057140;28;20195;-80
2023/09/10 08:13:55;;;;;;;0.00;0.00;;;;;;;21.87;86.24;100797.22;5060306;28;20176;-80
2023/09/10 08:16:21;;;;;;;2.03;1.93;;;;;;;22.01;86.30;100804.94;5054577;28;20278;-80
2023/09/10 08:18:46;;;;;;;0.80;0.80;;;;;;;22.10;85.04;100794.31;5054822;28;20199;-81
2023/09/10 08:21:11;;;;;;;4.47;4.17;;;;;;;22.14;85.04;100797.16;5060157;28;20188;-81
2023/09/10 08:23:37;;;;;;;1.07;1.07;;;;;;;22.19;84.84;100796.78;5058121;28;20182;-79
2023/09/10 08:26:02;;;;;;;2.80;2.67;;;;;;;22.21;84.81;100797.22;5059936;28;20268;-80
2023/09/10 08:28:28;;;;;;;0.00;0.00;;;;;;;22.36;83.66;100798.94;5053892;28;20252;-79
2023/09/10 08:30:54;;;;;;;2.33;2.23;;;;;;;22.49;83.07;100791.91;5054307;28;20209;-80
2023/09/10 08:33:21;;;;;;;3.67;3.33;;;;;;;22.64;81.76;100794.84;5053861;28;20698;-79
2023/09/10 08:35:48;;;;;;;2.00;1.10;;;;;;;22.66;80.68;100789.66;5058683;28;20205;-81
2023/09/10 08:38:15;;;;;;;5.83;5.37;;;;;;;22.68;80.43;100784.50;5054727;28;20186;-80
2023/09/10 08:41:08;;;;;;;1.60;0.70;;;;;;;22.84;79.96;100780.28;5053725;28;20270;-80
2023/09/10 08:43:56;;;;;;;2.13;2.03;;;;;;;22.92;79.66;100794.28;5050877;28;20293;-79
2023/09/10 08:46:23;;;;;;;1.63;1.60;;;;;;;22.94;80.37;100787.13;5053561;28;20274;-80
2023/09/10 08:48:50;;;;;;;2.67;2.50;;;;;;;23.05;79.39;100782.44;5053714;28;20208;-80
2023/09/10 08:51:17;;;;;;;0.80;0.80;;;;;;;23.17;78.41;100788.91;5053429;28;20183;-80
2023/09/10 08:53:43;;;;;;;0.87;0.67;;;;;;;23.14;78.05;100780.09;5054414;28;20585;-80
2023/09/10 08:56:10;;;;;;;2.07;1.97;;;;;;;23.23;78.37;100790.13;5053586;28;20195;-80
2023/09/10 08:58:41;;;;;;;0.73;0.37;;;;;;;23.20;77.99;100783.34;5054495;28;20202;-81
2023/09/10 09:01:08;;;;;;;14.60;3.73;;;;;;;23.28;78.26;100782.19;5052043;28;20189;-80
2023/09/10 09:03:33;;;;;;;1.60;1.50;;;;;;;23.44;77.89;100777.09;5055531;28;20672;-79
2023/09/10 09:06:02;;;;;;;0.10;0.10;;;;;;;23.69;77.53;100793.16;5055546;28;20195;-80
2023/09/10 09:08:35;;;;;;;1.67;1.33;;;;;;;23.76;77.71;100793.22;5055536;28;20289;-80
2023/09/10 09:11:03;;;;;;;1.77;1.67;;;;;;;23.77;77.75;100797.59;5053386;28;20202;-79
2023/09/10 09:13:35;;;;;;;5.53;5.20;;;;;;;23.84;77.88;100791.25;5053200;28;20620;-80
2023/09/10 09:16:03;;;;;;;17.10;1.60;;;;;;;24.01;76.64;100790.50;5053213;28;20268;-80
2023/09/10 09:18:29;;;;;;;0.00;0.00;;;;;;;23.93;77.19;100783.31;5053262;28;20179;-80
2023/09/10 09:20:59;;;;;;;0.13;0.13;;;;;;;23.92;76.35;100776.94;5053314;28;20680;-81
2023/09/10 09:23:37;;;;;;;0.00;0.00;;;;;;;24.26;76.78;100785.78;5054416;28;20187;-80
2023/09/10 09:26:05;;;;;;;5.07;4.77;;;;;;;24.35;75.90;100782.63;5055794;28;20226;-79
2023/09/10 09:28:32;;;;;;;1.00;1.00;;;;;;;24.42;75.63;100776.25;5052548;28;20210;-80
2023/09/10 09:30:57;;;;;;;0.33;0.33;;;;;;;24.55;75.45;100789.44;5051925;28;20194;-80
2023/09/10 09:33:23;;;;;;;2.27;2.17;;;;;;;24.47;75.63;100773.06;5053986;28;20183;-80
2023/09/10 09:35:48;;;;;;;0.03;0.03;;;;;;;24.72;74.96;100782.25;5052952;28;20232;-80
2023/09/10 09:38:13;;;;;;;2.90;2.73;;;;;;;24.91;74.15;100779.06;5053416;28;20183;-80
2023/09/10 09:40:39;;;;;;;0.87;0.67;;;;;;;24.74;73.92;100774.28;5053315;28;20185;-80
2023/09/10 09:43:08;;;;;;;3.30;2.90;;;;;;;24.72;73.69;100762.69;5055593;28;20179;-79
2023/09/10 09:45:35;;;;;;;0.00;0.00;;;;;;;24.98;73.57;100783.81;5052799;28;20230;-80
2023/09/10 09:48:03;;;;;;;4.57;1.33;;;;;;;25.00;72.78;100767.47;5052101;28;20692;-80
2023/09/10 09:50:28;;;;;;;1.93;1.83;;;;;;;25.33;72.64;100777.41;5051894;28;20187;-79
2023/09/10 09:52:55;;;;;;;0.07;0.07;;;;;;;25.66;72.34;100775.28;5050703;28;20236;-79
2023/09/10 09:55:21;;;;;;;1.80;1.70;;;;;;;25.62;71.15;100766.13;5050628;28;20234;-80
2023/09/10 09:57:47;;;;;;;2.20;2.10;;;;;;;25.72;70.56;100765.28;5050592;28;20249;-79
2023/09/10 10:00:13;;;;;;;0.53;0.53;;;;;;;25.71;70.52;100758.88;5049958;28;20252;-78
2023/09/10 10:02:39;;;;;;;0.43;0.43;;;;;;;25.68;71.08;100750.47;5051578;28;20189;-79
2023/09/10 10:05:04;;;;;;;0.97;0.97;;;;;;;25.92;71.58;100769.19;5050145;28;20211;-79
2023/09/10 10:07:31;;;;;;;1.70;1.60;;;;;;;25.72;70.29;100740.88;5051406;28;20283;-79
2023/09/10 10:09:59;;;;;;;0.93;0.93;;;;;;;25.71;70.77;100746.88;5051113;28;20233;-79
2023/09/10 10:12:25;;;;;;;0.10;0.10;;;;;;;25.67;70.59;100727.28;5051842;28;20183;-80
2023/09/10 10:14:52;;;;;;;0.43;0.43;;;;;;;26.06;70.71;100746.72;5050234;28;20194;-79
2023/09/10 10:17:20;;;;;;;0.60;0.33;;;;;;;26.19;69.74;100746.22;5051751;28;20183;-80
2023/09/10 10:19:46;;;;;;;0.30;0.30;;;;;;;26.33;69.37;100740.53;5051505;28;20195;-79
2023/09/10 10:22:12;;;;;;;12.77;2.23;;;;;;;25.79;68.88;100707.28;5049999;28;20191;-78
2023/09/10 10:24:39;;;;;;;0.70;0.63;;;;;;;26.22;68.88;100737.00;5051588;28;20215;-80
2023/09/10 10:27:05;;;;;;;0.00;0.00;;;;;;;26.46;68.47;100744.44;5051317;28;20232;-79
2023/09/10 10:29:32;;;;;;;0.00;0.00;;;;;;;26.37;67.64;100724.50;5051423;28;20187;-79
2023/09/10 10:32:04;;;;;;;0.00;0.00;;;;;;;26.69;68.21;100738.25;5050060;28;20194;-79
2023/09/10 10:34:36;;;;;;;5.33;5.03;;;;;;;26.88;67.35;100734.03;5050337;28;20236;-79
2023/09/10 10:37:30;;;;;;;0.30;0.30;;;;;;;26.65;67.02;100704.63;5050023;28;20763;-79
2023/09/10 10:40:11;;;;;;;0.00;0.00;;;;;;;26.72;66.12;100708.56;5051138;28;20179;-79
2023/09/10 10:43:01;;;;;;;0.00;0.00;;;;;;;27.13;66.04;100729.00;5051758;28;20673;-79
2023/09/10 10:45:27;;;;;;;2.07;1.67;;;;;;;27.43;65.96;100730.25;5049890;28;20230;-79
2023/09/10 10:47:53;;;;;;;0.87;0.87;;;;;;;27.55;64.53;100715.66;5054834;28;20731;-79
2023/09/10 10:50:30;;;;;;;0.10;0.10;;;;;;;27.60;63.34;100697.56;5054606;28;20183;-79
2023/09/10 10:53:03;;;;;;;0.27;0.27;;;;;;;27.50;63.13;100685.28;5055147;28;20256;-79
2023/09/10 10:55:29;;;;;;;0.00;0.00;;;;;;;27.69;64.57;100695.84;5055931;28;20245;-79
2023/09/10 10:57:55;;;;;;;3.50;3.20;;;;;;;27.78;63.61;100682.09;5054580;28;20587;-79
2023/09/10 11:00:21;;;;;;;0.87;0.87;;;;;;;27.89;62.78;100684.72;5053071;28;20218;-79
2023/09/10 11:03:14;;;;;;;2.63;2.47;;;;;;;27.41;62.94;100657.72;5054717;28;20238;-79
2023/09/10 11:05:51;;;;;;;41.93;1.17;;;;;;;27.50;63.12;100671.25;5054315;28;20218;-79
2023/09/10 11:08:31;;;;;;;0.97;0.97;;;;;;;27.36;64.22;100660.19;5052817;28;20218;-79
2023/09/10 11:10:57;;;;;;;4.13;2.87;;;;;;;27.53;63.72;100664.78;5053712;28;20278;-79
2023/09/10 11:13:23;;;;;;;1.70;1.60;;;;;;;27.63;63.91;100660.22;5054957;28;20190;-80
2023/09/10 11:16:03;;;;;;;0.47;0.47;;;;;;;27.25;63.56;100641.50;5053121;28;20209;-80
2023/09/10 11:18:35;;;;;;;2.67;2.47;;;;;;;27.63;63.70;100658.22;5052988;28;20187;-79
2023/09/10 11:21:07;;;;;;;4.20;3.90;;;;;;;27.36;63.06;100641.34;5054313;28;20275;-79